createdAt,value
2019-05-07T00:00:08.414Z,951.70
2019-05-07T00:01:08.413Z,931.20
2019-05-07T00:02:08.396Z,954.00
2019-05-07T00:03:08.380Z,945.30
2019-05-07T00:04:08.367Z,933.80
2019-05-07T00:05:08.359Z,948.40
2019-05-07T00:06:08.369Z,922.70
2019-05-07T00:07:08.388Z,932.50
2019-05-07T00:08:08.350Z,918.50
2019-05-07T00:09:08.322Z,922.20
2019-05-07T00:10:08.307Z,911.90
2019-05-07T00:11:08.311Z,915.40
2019-05-07T00:12:08.285Z,924.80
2019-05-07T00:13:08.289Z,904.00
2019-05-07T00:14:08.276Z,908.50
2019-05-07T00:15:08.256Z,928.10
2019-05-07T00:16:08.264Z,896.20
2019-05-07T00:17:08.242Z,917.60
2019-05-07T00:18:08.226Z,912.00
2019-05-07T00:19:08.215Z,894.70
2019-05-07T00:20:08.208Z,926.50
2019-05-07T00:21:08.195Z,912.80
2019-05-07T00:22:08.194Z,922.70
2019-05-07T00:23:08.179Z,928.30
2019-05-07T00:24:08.163Z,906.60
2019-05-07T00:25:08.168Z,910.00
2019-05-07T00:26:08.153Z,896.90
2019-05-07T00:27:08.156Z,925.90
2019-05-07T00:28:08.121Z,931.80
2019-05-07T00:29:08.123Z,914.60
2019-05-07T00:30:08.093Z,908.00
2019-05-07T00:31:08.081Z,920.80
2019-05-07T00:32:08.083Z,914.80
2019-05-07T00:33:08.070Z,919.40
2019-05-07T00:34:08.063Z,935.50
2019-05-07T00:35:08.080Z,912.90
2019-05-07T00:36:08.068Z,899.20
2019-05-07T00:37:08.044Z,910.50
2019-05-07T00:38:08.030Z,936.10
2019-05-07T00:39:08.004Z,920.20
2019-05-07T00:40:08.001Z,917.80
2019-05-07T00:41:07.991Z,943.10
2019-05-07T00:42:08.029Z,934.30
2019-05-07T00:43:07.955Z,920.60
2019-05-07T00:44:07.962Z,920.90
2019-05-07T00:45:16.814Z,920.40
2019-05-07T00:46:08.932Z,945.30
2019-05-07T00:47:07.958Z,929.80
2019-05-07T00:48:07.903Z,929.30
2019-05-07T00:49:07.898Z,918.50
2019-05-07T00:50:07.882Z,930.80
2019-05-07T00:51:07.875Z,900.00
2019-05-07T00:52:07.884Z,931.30
2019-05-07T00:53:07.861Z,926.10
2019-05-07T00:54:07.856Z,935.90
2019-05-07T00:55:07.827Z,932.30
2019-05-07T00:56:07.818Z,922.60
2019-05-07T00:57:07.832Z,933.00
2019-05-07T00:58:07.796Z,903.60
2019-05-07T00:59:07.801Z,931.90
2019-05-07T01:00:07.783Z,917.80
2019-05-07T01:01:07.769Z,919.80
2019-05-07T01:02:07.771Z,926.60
2019-05-07T01:03:07.752Z,911.70
2019-05-07T01:04:07.745Z,910.90
2019-05-07T01:05:07.721Z,924.80
2019-05-07T01:06:07.715Z,917.20
2019-05-07T01:07:07.738Z,916.10
2019-05-07T01:08:07.699Z,893.60
2019-05-07T01:09:07.697Z,910.50
2019-05-07T01:10:07.682Z,919.60
2019-05-07T01:11:07.663Z,919.90
2019-05-07T01:12:07.697Z,939.10
2019-05-07T01:13:07.643Z,919.00
2019-05-07T01:14:07.634Z,921.80
2019-05-07T01:15:07.615Z,930.20
2019-05-07T01:16:07.630Z,917.40
2019-05-07T01:17:07.615Z,929.20
2019-05-07T01:18:07.585Z,921.30
2019-05-07T01:19:07.584Z,918.60
2019-05-07T01:20:07.564Z,922.10
2019-05-07T01:21:08.187Z,918.30
2019-05-07T01:22:07.568Z,925.10
2019-05-07T01:23:07.578Z,920.10
2019-05-07T01:24:07.539Z,936.50
2019-05-07T01:25:07.518Z,923.10
2019-05-07T01:26:07.511Z,922.80
2019-05-07T01:27:07.493Z,934.60
2019-05-07T01:28:07.498Z,930.20
2019-05-07T01:29:07.486Z,932.10
2019-05-07T01:30:07.465Z,936.80
2019-05-07T01:31:07.487Z,953.50
2019-05-07T01:32:07.447Z,938.20
2019-05-07T01:33:07.443Z,929.20
2019-05-07T01:34:07.467Z,930.50
2019-05-07T01:35:07.451Z,949.70
2019-05-07T01:36:07.400Z,951.60
2019-05-07T01:37:07.395Z,936.90
2019-05-07T01:38:07.396Z,938.20
2019-05-07T01:39:07.365Z,945.80
2019-05-07T01:40:07.401Z,938.20
2019-05-07T01:41:07.365Z,940.00
2019-05-07T01:42:07.366Z,945.60
2019-05-07T01:43:07.350Z,946.60
2019-05-07T01:44:07.320Z,943.20
2019-05-07T01:45:07.348Z,935.60
2019-05-07T01:46:07.290Z,932.80
2019-05-07T01:47:07.281Z,923.40
2019-05-07T01:48:07.308Z,921.10
2019-05-07T01:49:07.281Z,909.80
2019-05-07T01:50:07.248Z,929.40
2019-05-07T01:51:07.245Z,922.60
2019-05-07T01:52:07.245Z,916.00
2019-05-07T01:53:07.229Z,935.10
2019-05-07T01:54:07.238Z,926.20
2019-05-07T01:55:07.229Z,929.20
2019-05-07T01:56:07.193Z,920.70
2019-05-07T01:57:07.184Z,933.80
2019-05-07T01:58:07.164Z,919.00
2019-05-07T01:59:07.196Z,923.00
2019-05-07T02:00:07.151Z,915.30
2019-05-07T02:01:07.144Z,930.20
2019-05-07T02:02:07.124Z,927.90
2019-05-07T02:03:07.128Z,905.70
2019-05-07T02:04:07.118Z,908.50
2019-05-07T02:05:07.116Z,933.60
2019-05-07T02:06:07.079Z,935.70
2019-05-07T02:07:07.095Z,908.70
2019-05-07T02:08:07.071Z,931.10
2019-05-07T02:09:10.135Z,907.00
2019-05-07T02:10:07.046Z,924.40
2019-05-07T02:11:07.034Z,931.80
2019-05-07T02:12:07.035Z,914.70
2019-05-07T02:13:07.012Z,926.00
2019-05-07T02:14:07.028Z,935.20
2019-05-07T02:15:07.002Z,933.00
2019-05-07T02:16:06.986Z,930.80
2019-05-07T02:17:06.991Z,934.80
2019-05-07T02:18:06.960Z,916.90
2019-05-07T02:19:06.962Z,927.80
2019-05-07T02:20:06.951Z,945.50
2019-05-07T02:21:06.946Z,950.50
2019-05-07T02:22:06.922Z,934.60
2019-05-07T02:23:06.918Z,944.20
2019-05-07T02:24:06.893Z,924.40
2019-05-07T02:25:07.001Z,938.10
2019-05-07T02:26:06.873Z,940.50
2019-05-07T02:27:06.860Z,934.60
2019-05-07T02:28:06.888Z,935.00
2019-05-07T02:29:06.841Z,928.60
2019-05-07T02:30:06.850Z,943.50
2019-05-07T02:31:06.813Z,934.50
2019-05-07T02:32:06.818Z,933.60
2019-05-07T02:33:06.843Z,949.50
2019-05-07T02:34:06.800Z,935.30
2019-05-07T02:35:06.791Z,935.60
2019-05-07T02:36:06.790Z,921.50
2019-05-07T02:37:06.770Z,908.20
2019-05-07T02:38:06.749Z,931.10
2019-05-07T02:39:06.731Z,926.20
2019-05-07T02:40:06.770Z,931.80
2019-05-07T02:41:06.748Z,910.60
2019-05-07T02:42:06.702Z,945.50
2019-05-07T02:43:06.696Z,940.10
2019-05-07T02:44:06.708Z,935.30
2019-05-07T02:45:06.695Z,924.80
2019-05-07T02:46:20.771Z,935.50
2019-05-07T02:47:07.653Z,930.50
2019-05-07T02:48:06.668Z,940.90
2019-05-07T02:49:06.630Z,952.90
2019-05-07T02:50:06.634Z,930.70
2019-05-07T02:51:06.621Z,940.60
2019-05-07T02:52:06.594Z,942.70
2019-05-07T02:53:06.587Z,941.80
2019-05-07T02:54:06.572Z,924.40
2019-05-07T02:55:06.573Z,932.30
2019-05-07T02:56:06.618Z,929.10
2019-05-07T02:57:06.594Z,935.30
2019-05-07T02:58:06.555Z,931.40
2019-05-07T02:59:06.535Z,936.70
2019-05-07T03:00:06.521Z,953.30
2019-05-07T03:01:06.511Z,1088.20
2019-05-07T03:02:06.488Z,1109.00
2019-05-07T03:03:06.511Z,1080.10
2019-05-07T03:04:06.469Z,1098.60
2019-05-07T03:05:06.459Z,1110.00
2019-05-07T03:06:06.475Z,1109.30
2019-05-07T03:07:06.674Z,1106.90
2019-05-07T03:08:06.440Z,1107.20
2019-05-07T03:09:06.428Z,1112.50
2019-05-07T03:10:06.419Z,1115.30
2019-05-07T03:11:06.463Z,1097.00
2019-05-07T03:12:06.394Z,1104.00
2019-05-07T03:13:06.378Z,1129.00
2019-05-07T03:14:06.364Z,1118.70
2019-05-07T03:15:06.357Z,1096.20
2019-05-07T03:16:06.350Z,1093.20
2019-05-07T03:17:06.347Z,1107.70
2019-05-07T03:18:06.322Z,1116.20
2019-05-07T03:19:06.321Z,1103.30
2019-05-07T03:20:06.305Z,1121.40
2019-05-07T03:21:06.298Z,1118.60
2019-05-07T03:22:06.287Z,1101.60
2019-05-07T03:23:06.286Z,1124.00
2019-05-07T03:24:06.272Z,1104.90
2019-05-07T03:25:06.249Z,1104.60
2019-05-07T03:26:06.253Z,1112.20
2019-05-07T03:27:06.271Z,1117.20
2019-05-07T03:28:06.443Z,1123.00
2019-05-07T03:29:06.206Z,1101.50
2019-05-07T03:30:06.198Z,1112.30
2019-05-07T03:31:06.537Z,1101.90
2019-05-07T03:32:06.574Z,1115.80
2019-05-07T03:33:07.267Z,1115.80
2019-05-07T03:34:07.331Z,1124.00
2019-05-07T03:35:07.420Z,1108.70
2019-05-07T03:36:07.564Z,1114.80
2019-05-07T03:37:06.775Z,1124.10
2019-05-07T03:38:06.145Z,1115.80
2019-05-07T03:39:06.111Z,1136.10
2019-05-07T03:40:06.111Z,1127.90
2019-05-07T03:41:06.131Z,1122.30
2019-05-07T03:42:06.072Z,1135.10
2019-05-07T03:43:06.570Z,1134.00
2019-05-07T03:44:06.052Z,1132.20
2019-05-07T03:45:06.062Z,1141.70
2019-05-07T03:46:06.044Z,1134.20
2019-05-07T03:47:06.454Z,1146.30
2019-05-07T03:48:06.018Z,1131.90
2019-05-07T03:49:06.233Z,1101.50
2019-05-07T03:50:05.994Z,1133.40
2019-05-07T03:51:05.977Z,1140.50
2019-05-07T03:52:05.986Z,1129.90
2019-05-07T03:53:05.966Z,1136.90
2019-05-07T03:54:05.956Z,1128.60
2019-05-07T03:55:05.940Z,1130.40
2019-05-07T03:56:05.925Z,1139.00
2019-05-07T03:57:11.344Z,1113.80
2019-05-07T03:58:06.896Z,1123.60
2019-05-07T03:59:05.881Z,1127.60
2019-05-07T04:00:05.883Z,1128.10
2019-05-07T04:01:05.890Z,1139.10
2019-05-07T04:02:05.889Z,1128.30
2019-05-07T04:03:05.844Z,1145.20
2019-05-07T04:04:05.834Z,1137.20
2019-05-07T04:05:05.814Z,1132.20
2019-05-07T04:06:05.815Z,1152.40
2019-05-07T04:07:05.820Z,1125.60
2019-05-07T04:08:05.808Z,1141.90
2019-05-07T04:09:05.785Z,1150.20
2019-05-07T04:10:09.698Z,1149.80
2019-05-07T04:11:05.759Z,1125.00
2019-05-07T04:12:05.760Z,1135.40
2019-05-07T04:13:05.729Z,1145.70
2019-05-07T04:14:05.718Z,1148.50
2019-05-07T04:15:05.723Z,1128.20
2019-05-07T04:16:05.716Z,1126.50
2019-05-07T04:17:21.189Z,1153.20
2019-05-07T04:18:06.691Z,1142.80
2019-05-07T04:19:05.674Z,1142.30
2019-05-07T04:20:05.665Z,1134.00
2019-05-07T04:21:05.665Z,1130.90
2019-05-07T04:22:05.651Z,1152.90
2019-05-07T04:23:05.669Z,1142.20
2019-05-07T04:24:05.653Z,1130.60
2019-05-07T04:25:05.613Z,1163.80
2019-05-07T04:26:05.601Z,1140.90
2019-05-07T04:27:05.590Z,1152.10
2019-05-07T04:28:05.609Z,1151.20
2019-05-07T04:29:06.375Z,1123.10
2019-05-07T04:30:05.576Z,1131.60
2019-05-07T04:31:05.559Z,1132.10
2019-05-07T04:32:05.550Z,1136.90
2019-05-07T04:33:05.524Z,1114.00
2019-05-07T04:34:05.512Z,1116.50
2019-05-07T04:35:05.515Z,1109.10
2019-05-07T04:36:05.540Z,1123.20
2019-05-07T04:37:05.507Z,1110.80
2019-05-07T04:38:06.991Z,1113.40
2019-05-07T04:39:05.447Z,1100.90
2019-05-07T04:40:05.449Z,1074.40
2019-05-07T04:41:05.427Z,1081.40
2019-05-07T04:42:05.421Z,1082.20
2019-05-07T04:43:05.427Z,1101.20
2019-05-07T04:44:05.413Z,1087.80
2019-05-07T04:45:05.398Z,1093.70
2019-05-07T04:46:05.383Z,1080.70
2019-05-07T04:47:05.386Z,1111.50
2019-05-07T04:48:05.370Z,1061.00
2019-05-07T04:49:05.359Z,1061.50
2019-05-07T04:50:05.340Z,1065.40
2019-05-07T04:51:05.327Z,1101.70
2019-05-07T04:52:05.343Z,1077.90
2019-05-07T04:53:05.308Z,1064.70
2019-05-07T04:54:05.316Z,1103.80
2019-05-07T04:55:05.308Z,1102.70
2019-05-07T04:56:05.282Z,1105.00
2019-05-07T04:57:05.272Z,1089.80
2019-05-07T04:58:08.843Z,1127.70
2019-05-07T04:59:05.236Z,1106.10
2019-05-07T05:00:05.242Z,1115.90
2019-05-07T05:01:05.210Z,1105.20
2019-05-07T05:02:05.203Z,1105.50
2019-05-07T05:03:05.248Z,1130.50
2019-05-07T05:04:24.496Z,1119.40
2019-05-07T05:05:06.180Z,1108.20
2019-05-07T05:06:05.162Z,1131.30
2019-05-07T05:07:05.162Z,1117.80
2019-05-07T05:08:05.183Z,1129.00
2019-05-07T05:09:05.226Z,1137.90
2019-05-07T05:10:05.150Z,1141.30
2019-05-07T05:11:05.115Z,1125.50
2019-05-07T05:12:05.105Z,1115.70
2019-05-07T05:13:05.114Z,1142.00
2019-05-07T05:14:07.708Z,1133.70
2019-05-07T05:15:05.076Z,1114.70
2019-05-07T05:16:05.085Z,1137.30
2019-05-07T05:17:05.071Z,1134.60
2019-05-07T05:18:05.046Z,1137.40
2019-05-07T05:19:05.073Z,1135.20
2019-05-07T05:20:05.028Z,1137.60
2019-05-07T05:21:04.997Z,1127.10
2019-05-07T05:22:05.039Z,1127.70
2019-05-07T05:23:04.995Z,1136.90
2019-05-07T05:24:04.992Z,1126.20
2019-05-07T05:25:04.981Z,1114.70
2019-05-07T05:26:04.954Z,1118.30
2019-05-07T05:27:04.949Z,1100.00
2019-05-07T05:28:04.952Z,1112.00
2019-05-07T05:29:04.918Z,1097.70
2019-05-07T05:30:04.920Z,1114.30
2019-05-07T05:31:04.906Z,1126.00
2019-05-07T05:32:04.881Z,1100.10
2019-05-07T05:33:04.881Z,1106.30
2019-05-07T05:34:04.879Z,1086.60
2019-05-07T05:35:04.898Z,1089.00
2019-05-07T05:36:04.842Z,1109.20
2019-05-07T05:37:04.828Z,1092.70
2019-05-07T05:38:04.841Z,1118.00
2019-05-07T05:39:04.831Z,1114.60
2019-05-07T05:40:08.691Z,1092.10
2019-05-07T05:41:04.797Z,1109.60
2019-05-07T05:42:04.794Z,1105.30
2019-05-07T05:43:04.764Z,1109.60
2019-05-07T05:44:04.793Z,1127.10
2019-05-07T05:45:04.768Z,1100.20
2019-05-07T05:46:04.747Z,1115.30
2019-05-07T05:47:04.750Z,1111.20
2019-05-07T05:48:08.241Z,1110.90
2019-05-07T05:49:04.718Z,1122.30
2019-05-07T05:50:04.691Z,1109.20
2019-05-07T05:51:04.677Z,1119.90
2019-05-07T05:52:04.714Z,1126.30
2019-05-07T05:53:04.667Z,1114.40
2019-05-07T05:54:04.666Z,1132.80
2019-05-07T05:55:04.636Z,1106.60
2019-05-07T05:56:04.638Z,1116.50
2019-05-07T05:57:04.709Z,1097.20
2019-05-07T05:58:04.625Z,1096.00
2019-05-07T05:59:04.615Z,1105.10
2019-05-07T06:00:04.585Z,1101.40
2019-05-07T06:01:04.592Z,1105.80
2019-05-07T06:02:06.595Z,1114.40
2019-05-07T06:03:04.551Z,1098.30
2019-05-07T06:04:04.556Z,1130.00
2019-05-07T06:05:04.568Z,1104.20
2019-05-07T06:06:04.519Z,1118.60
2019-05-07T06:07:10.760Z,1117.70
2019-05-07T06:08:05.502Z,1112.90
2019-05-07T06:09:04.502Z,1140.50
2019-05-07T06:10:04.475Z,1129.50
2019-05-07T06:11:04.492Z,1143.10
2019-05-07T06:12:04.462Z,1112.90
2019-05-07T06:13:04.461Z,1117.20
2019-05-07T06:14:04.449Z,1120.00
2019-05-07T06:15:04.432Z,1127.00
2019-05-07T06:16:04.421Z,1134.50
2019-05-07T06:17:04.449Z,1123.00
2019-05-07T06:18:17.898Z,1127.20
2019-05-07T06:19:05.401Z,1140.60
2019-05-07T06:20:04.382Z,1142.30
2019-05-07T06:21:04.367Z,1139.70
2019-05-07T06:22:04.357Z,1138.90
2019-05-07T06:23:04.378Z,1111.40
2019-05-07T06:24:04.345Z,1127.10
2019-05-07T06:25:04.321Z,1124.50
2019-05-07T06:26:05.278Z,1123.20
2019-05-07T06:27:04.303Z,1128.30
2019-05-07T06:28:04.285Z,1125.30
2019-05-07T06:29:04.298Z,1139.20
2019-05-07T06:30:05.005Z,1115.50
2019-05-07T06:31:04.279Z,1122.00
2019-05-07T06:32:04.247Z,1121.10
2019-05-07T06:33:04.233Z,1133.60
2019-05-07T06:34:04.266Z,1117.60
2019-05-07T06:35:04.264Z,1124.90
2019-05-07T06:36:04.219Z,1119.40
2019-05-07T06:37:04.231Z,1120.20
2019-05-07T06:38:04.233Z,1099.00
2019-05-07T06:39:04.191Z,1112.40
2019-05-07T06:40:04.160Z,1105.50
2019-05-07T06:41:04.168Z,1101.60
2019-05-07T06:42:04.141Z,1117.90
2019-05-07T06:43:04.149Z,1106.20
2019-05-07T06:44:04.179Z,1112.60
2019-05-07T06:45:04.112Z,1098.30
2019-05-07T06:46:04.119Z,1093.40
2019-05-07T06:47:04.126Z,1106.10
2019-05-07T06:48:04.075Z,1088.00
2019-05-07T06:49:04.077Z,1085.60
2019-05-07T06:50:04.061Z,1077.80
2019-05-07T06:51:04.060Z,1085.20
2019-05-07T06:52:04.069Z,1091.40
2019-05-07T06:53:04.033Z,1081.40
2019-05-07T06:54:04.034Z,1096.50
2019-05-07T06:55:04.033Z,1086.30
2019-05-07T06:56:03.994Z,1114.10
2019-05-07T06:57:03.977Z,1085.80
2019-05-07T06:58:03.965Z,1099.40
2019-05-07T06:59:04.181Z,1102.80
2019-05-07T07:00:03.969Z,1101.80
2019-05-07T07:01:03.949Z,1112.10
2019-05-07T07:02:05.669Z,1116.00
2019-05-07T07:03:03.913Z,1133.00
2019-05-07T07:04:03.909Z,1138.40
2019-05-07T07:05:03.908Z,1127.80
2019-05-07T07:06:03.878Z,1147.50
2019-05-07T07:07:03.905Z,1149.90
2019-05-07T07:08:03.862Z,1164.80
2019-05-07T07:09:03.866Z,1180.90
2019-05-07T07:10:03.869Z,1186.50
2019-05-07T07:11:03.867Z,1174.70
2019-05-07T07:12:03.821Z,1162.30
2019-05-07T07:13:03.829Z,1183.50
2019-05-07T07:14:03.796Z,1183.60
2019-05-07T07:15:03.798Z,1196.70
2019-05-07T07:16:03.776Z,1196.20
2019-05-07T07:17:03.765Z,1190.10
2019-05-07T07:18:03.755Z,1193.50
2019-05-07T07:19:03.750Z,1199.40
2019-05-07T07:20:03.845Z,1200.60
2019-05-07T07:21:03.719Z,1199.90
2019-05-07T07:22:03.714Z,1196.30
2019-05-07T07:23:03.702Z,1181.10
2019-05-07T07:24:03.718Z,1197.70
2019-05-07T07:25:06.451Z,1185.40
2019-05-07T07:26:03.676Z,1168.80
2019-05-07T07:27:03.667Z,1169.50
2019-05-07T07:28:03.667Z,1147.50
2019-05-07T07:29:03.635Z,1177.60
2019-05-07T07:30:03.657Z,1155.00
2019-05-07T07:31:03.621Z,1172.70
2019-05-07T07:32:03.598Z,1178.50
2019-05-07T07:33:03.590Z,1193.00
2019-05-07T07:34:03.597Z,1173.20
2019-05-07T07:35:03.586Z,1183.20
2019-05-07T07:36:03.559Z,1185.90
2019-05-07T07:37:09.023Z,1183.00
2019-05-07T07:38:04.539Z,1178.40
2019-05-07T07:39:03.555Z,1194.30
2019-05-07T07:40:03.537Z,1155.50
2019-05-07T07:41:05.423Z,1190.80
2019-05-07T07:42:03.514Z,1184.00
2019-05-07T07:43:06.780Z,1186.50
2019-05-07T07:44:03.504Z,1158.70
2019-05-07T07:45:03.503Z,1150.00
2019-05-07T07:46:03.459Z,1152.30
2019-05-07T07:47:03.454Z,1176.10
2019-05-07T07:48:03.429Z,1160.40
2019-05-07T07:49:10.672Z,1168.90
2019-05-07T07:50:04.442Z,1174.40
2019-05-07T07:51:03.567Z,1166.30
2019-05-07T07:52:03.429Z,1173.00
2019-05-07T07:53:03.400Z,1147.00
2019-05-07T07:54:03.374Z,1166.60
2019-05-07T07:55:03.356Z,1171.00
2019-05-07T07:56:03.397Z,1149.60
2019-05-07T07:57:03.359Z,1162.70
2019-05-07T07:58:03.328Z,1162.10
2019-05-07T07:59:03.344Z,1152.30
2019-05-07T08:00:03.310Z,1162.70
2019-05-07T08:01:03.307Z,1166.80
2019-05-07T08:02:03.330Z,1163.20
2019-05-07T08:03:03.303Z,1160.80
2019-05-07T08:04:03.276Z,1170.10
2019-05-07T08:05:03.253Z,1163.70
2019-05-07T08:06:03.272Z,1154.10
2019-05-07T08:07:03.355Z,1171.00
2019-05-07T08:08:03.229Z,1180.60
2019-05-07T08:09:07.507Z,1180.40
2019-05-07T08:10:05.733Z,1178.90
2019-05-07T08:11:42.754Z,1167.90
2019-05-07T08:12:03.316Z,1183.40
2019-05-07T08:13:03.159Z,1192.90
2019-05-07T08:14:03.152Z,1205.10
2019-05-07T08:15:14.667Z,1174.40
2019-05-07T08:16:04.161Z,1187.90
2019-05-07T08:17:03.117Z,1197.30
2019-05-07T08:18:03.112Z,1141.00
2019-05-07T08:19:03.106Z,1161.60
2019-05-07T08:20:03.097Z,1171.00
2019-05-07T08:21:03.099Z,1173.40
2019-05-07T08:22:03.198Z,1181.60
2019-05-07T08:23:03.141Z,1161.30
2019-05-07T08:24:03.057Z,1159.30
2019-05-07T08:25:03.056Z,1154.00
2019-05-07T08:26:03.048Z,1106.40
2019-05-07T08:27:03.020Z,1110.50
2019-05-07T08:28:03.038Z,1130.40
2019-05-07T08:29:03.070Z,1151.60
2019-05-07T08:30:03.054Z,1143.80
2019-05-07T08:31:03.085Z,1123.30
2019-05-07T08:32:03.035Z,1147.20
2019-05-07T08:33:02.968Z,1151.50
2019-05-07T08:34:02.949Z,1110.10
2019-05-07T08:35:02.960Z,1129.70
2019-05-07T08:36:02.920Z,1156.00
2019-05-07T08:37:02.922Z,1158.00
2019-05-07T08:38:02.943Z,1141.40
2019-05-07T08:39:02.916Z,1139.60
2019-05-07T08:40:03.220Z,1140.20
2019-05-07T08:41:02.902Z,1094.40
2019-05-07T08:42:02.867Z,1013.50
2019-05-07T08:43:03.355Z,1009.40
2019-05-07T08:44:11.488Z,1045.20
2019-05-07T08:45:03.900Z,1026.60
2019-05-07T08:46:02.829Z,1035.40
2019-05-07T08:47:02.858Z,1058.40
2019-05-07T08:48:02.795Z,1030.20
2019-05-07T08:49:02.779Z,1015.90
2019-05-07T08:50:02.983Z,1020.80
2019-05-07T08:51:02.774Z,1033.20
2019-05-07T08:52:03.778Z,1061.20
2019-05-07T08:53:02.879Z,1057.60
2019-05-07T08:54:02.726Z,1000.10
2019-05-07T08:55:02.719Z,1019.20
2019-05-07T08:56:03.288Z,1037.00
2019-05-07T08:57:02.714Z,1048.10
2019-05-07T08:58:02.700Z,1042.40
2019-05-07T08:59:02.679Z,1046.40
2019-05-07T09:00:04.723Z,985.40
2019-05-07T09:01:03.177Z,1050.30
2019-05-07T09:02:03.094Z,1010.50
2019-05-07T09:03:02.632Z,1004.10
2019-05-07T09:04:02.623Z,1013.40
2019-05-07T09:05:03.103Z,990.60
2019-05-07T09:06:02.597Z,969.20
2019-05-07T09:07:02.920Z,980.40
2019-05-07T09:08:02.582Z,997.50
2019-05-07T09:09:02.582Z,1017.30
2019-05-07T09:10:02.690Z,992.10
2019-05-07T09:11:02.539Z,986.60
2019-05-07T09:12:03.143Z,982.40
2019-05-07T09:13:02.890Z,1009.30
2019-05-07T09:14:02.514Z,995.80
2019-05-07T09:15:02.548Z,1010.30
2019-05-07T09:16:02.523Z,995.00
2019-05-07T09:17:02.935Z,1017.90
2019-05-07T09:18:02.469Z,997.20
2019-05-07T09:19:02.449Z,996.30
2019-05-07T09:20:02.741Z,974.70
2019-05-07T09:21:02.435Z,967.10
2019-05-07T09:22:02.438Z,1028.30
2019-05-07T09:23:02.448Z,987.10
2019-05-07T09:24:02.593Z,1029.00
2019-05-07T09:25:03.078Z,1010.90
2019-05-07T09:26:02.830Z,1014.00
2019-05-07T09:27:02.770Z,1007.80
2019-05-07T09:28:02.716Z,1021.90
2019-05-07T09:29:02.695Z,1027.30
2019-05-07T09:30:02.805Z,1016.00
2019-05-07T09:31:02.325Z,1047.10
2019-05-07T09:32:03.055Z,1022.10
2019-05-07T09:33:02.600Z,1034.90
2019-05-07T09:34:02.691Z,1053.10
2019-05-07T09:35:02.446Z,1037.60
2019-05-07T09:36:02.407Z,1023.20
2019-05-07T09:37:02.468Z,1016.20
2019-05-07T09:38:03.160Z,1031.70
2019-05-07T09:39:02.795Z,1032.50
2019-05-07T09:40:02.813Z,1032.00
2019-05-07T09:41:02.768Z,1078.40
2019-05-07T09:42:02.300Z,1036.80
2019-05-07T09:43:02.609Z,1028.80
2019-05-07T09:44:03.190Z,1029.20
2019-05-07T09:45:02.222Z,1066.40
2019-05-07T09:46:02.681Z,1114.00
2019-05-07T09:47:02.735Z,1116.00
2019-05-07T09:48:02.822Z,1129.20
2019-05-07T09:49:03.058Z,1164.50
2019-05-07T09:50:07.163Z,1168.30
2019-05-07T09:51:03.132Z,1140.50
2019-05-07T09:52:03.248Z,1129.60
2019-05-07T09:53:02.404Z,1123.40
2019-05-07T09:54:02.534Z,1133.30
2019-05-07T09:55:11.069Z,1137.40
2019-05-07T09:56:03.053Z,1112.30
2019-05-07T09:57:02.069Z,1134.00
2019-05-07T09:58:02.219Z,1140.00
2019-05-07T09:59:02.276Z,1148.20
2019-05-07T10:00:02.368Z,1154.70
2019-05-07T10:01:02.192Z,1152.30
2019-05-07T10:02:02.031Z,1157.20
2019-05-07T10:03:02.001Z,1100.60
2019-05-07T10:04:02.623Z,1083.10
2019-05-07T10:05:02.515Z,1112.60
2019-05-07T10:06:02.371Z,1102.10
2019-05-07T10:07:02.538Z,1068.00
2019-05-07T10:08:02.050Z,1129.80
2019-05-07T10:09:02.841Z,1149.10
2019-05-07T10:10:03.228Z,1145.30
2019-05-07T10:11:02.706Z,1141.00
2019-05-07T10:12:02.782Z,1138.40
2019-05-07T10:13:01.987Z,1133.40
2019-05-07T10:14:02.031Z,1096.90
2019-05-07T10:15:03.094Z,1089.70
2019-05-07T10:16:03.850Z,1113.00
2019-05-07T10:17:02.768Z,1049.20
2019-05-07T10:18:01.939Z,1043.70
2019-05-07T10:19:01.825Z,1003.40
2019-05-07T10:20:04.434Z,996.50
2019-05-07T10:21:02.824Z,994.90
2019-05-07T10:22:02.346Z,1020.80
2019-05-07T10:23:02.465Z,1011.10
2019-05-07T10:24:02.380Z,1050.60
2019-05-07T10:25:02.875Z,1064.90
2019-05-07T10:26:01.884Z,1082.10
2019-05-07T10:27:02.283Z,1039.90
2019-05-07T10:28:02.024Z,1019.60
2019-05-07T10:29:02.209Z,987.20
2019-05-07T10:30:02.370Z,1023.00
2019-05-07T10:31:01.684Z,1017.80
2019-05-07T10:32:02.208Z,982.40
2019-05-07T10:33:01.837Z,1015.70
2019-05-07T10:34:03.042Z,984.50
2019-05-07T10:35:02.243Z,989.70
2019-05-07T10:36:02.143Z,1017.10
2019-05-07T10:37:02.689Z,993.80
2019-05-07T10:38:02.042Z,1006.50
2019-05-07T10:39:02.520Z,1006.60
2019-05-07T10:40:03.131Z,1024.10
2019-05-07T10:41:02.834Z,996.20
2019-05-07T10:42:01.898Z,1007.10
2019-05-07T10:43:01.550Z,988.70
2019-05-07T10:44:02.545Z,998.90
2019-05-07T10:45:03.091Z,1015.20
2019-05-07T10:46:02.358Z,979.70
2019-05-07T10:47:01.996Z,1009.30
2019-05-07T10:48:02.524Z,1003.20
2019-05-07T10:49:01.957Z,1006.70
2019-05-07T10:50:02.878Z,1007.90
2019-05-07T10:51:02.147Z,1004.90
2019-05-07T10:52:02.142Z,984.70
2019-05-07T10:53:02.065Z,1002.30
2019-05-07T10:54:02.252Z,1010.80
2019-05-07T10:55:02.925Z,1005.20
2019-05-07T10:56:02.670Z,1008.60
2019-05-07T10:57:01.424Z,1007.30
2019-05-07T10:58:03.027Z,1020.10
2019-05-07T10:59:02.903Z,1019.30
2019-05-07T11:00:03.169Z,1029.60
2019-05-07T11:01:02.900Z,1044.20
2019-05-07T11:02:02.447Z,1055.10
2019-05-07T11:03:02.393Z,1052.70
2019-05-07T11:04:02.231Z,1063.60
2019-05-07T11:05:02.317Z,1078.00
2019-05-07T11:06:01.308Z,1071.00
2019-05-07T11:07:01.290Z,1051.80
2019-05-07T11:08:02.084Z,1070.80
2019-05-07T11:09:01.282Z,1087.70
2019-05-07T11:10:01.951Z,1084.90
2019-05-07T11:11:02.943Z,1073.00
2019-05-07T11:12:02.584Z,1084.10
2019-05-07T11:13:02.351Z,1080.90
2019-05-07T11:14:01.958Z,1085.60
2019-05-07T11:15:02.194Z,1088.30
2019-05-07T11:16:02.423Z,1079.80
2019-05-07T11:17:02.603Z,1082.60
2019-05-07T11:18:02.702Z,1082.50
2019-05-07T11:19:02.033Z,1046.90
2019-05-07T11:20:01.162Z,1048.50
2019-05-07T11:21:03.098Z,1029.90
2019-05-07T11:22:01.141Z,1050.90
2019-05-07T11:23:02.661Z,1053.70
2019-05-07T11:24:03.249Z,1046.80
2019-05-07T11:25:03.010Z,1026.40
2019-05-07T11:26:02.602Z,1022.10
2019-05-07T11:27:02.419Z,1017.20
2019-05-07T11:28:02.865Z,1006.90
2019-05-07T11:29:02.389Z,1016.00
2019-05-07T11:30:02.694Z,986.30
2019-05-07T11:31:02.115Z,1022.00
2019-05-07T11:32:01.032Z,1011.60
2019-05-07T11:33:02.723Z,1002.20
2019-05-07T11:34:02.775Z,1004.90
2019-05-07T11:35:02.962Z,1002.60
2019-05-07T11:36:02.139Z,1013.40
2019-05-07T11:37:02.431Z,1001.10
2019-05-07T11:38:10.980Z,990.00
2019-05-07T11:39:01.985Z,989.90
2019-05-07T11:40:03.029Z,972.50
2019-05-07T11:41:02.283Z,970.10
2019-05-07T11:42:02.382Z,985.20
2019-05-07T11:43:02.460Z,966.80
2019-05-07T11:44:01.791Z,965.70
2019-05-07T11:45:02.170Z,989.80
2019-05-07T11:46:02.003Z,987.20
2019-05-07T11:47:02.985Z,993.30
2019-05-07T11:48:01.890Z,977.20
2019-05-07T11:49:00.847Z,978.40
2019-05-07T11:50:03.060Z,958.90
2019-05-07T11:51:04.120Z,956.50
2019-05-07T11:52:00.846Z,976.50
2019-05-07T11:53:00.803Z,980.30
2019-05-07T11:54:02.107Z,969.00
2019-05-07T11:55:03.016Z,976.60
2019-05-07T11:56:02.522Z,977.90
2019-05-07T11:57:02.671Z,984.10
2019-05-07T11:58:02.433Z,981.50
2019-05-07T11:59:02.661Z,1003.90
2019-05-07T12:00:02.797Z,989.10
2019-05-07T12:01:03.671Z,991.00
2019-05-07T12:02:00.713Z,985.90
2019-05-07T12:03:02.286Z,1005.40
2019-05-07T12:04:01.995Z,1000.50
2019-05-07T12:05:02.019Z,981.50
2019-05-07T12:06:02.100Z,1002.30
2019-05-07T12:07:02.590Z,994.70
2019-05-07T12:08:02.346Z,995.60
2019-05-07T12:09:02.874Z,992.60
2019-05-07T12:10:04.669Z,996.00
2019-05-07T12:11:02.337Z,986.20
2019-05-07T12:12:02.388Z,991.90
2019-05-07T12:13:02.395Z,992.60